Time;durP1;ratioP1;P1;durP2;ratioP2;P2;SDS_P1;SDS_P2;PMS_P1;PMS_P2;Temp;Humidity;BMP_temperature;BMP_pressure;BME280_temperature;BME280_humidity;BME280_pressure;Samples;Min_cycle;Max_cycle;Signal;HPM_P1;HPM_P2
2023/03/12 00:00:38;;;;;;;11.03;6.27;;;;;;;;;;5052708;28;20225;-67
2023/03/12 00:03:03;;;;;;;11.83;5.60;;;;;;;;;;5048618;28;20201;-67
2023/03/12 00:05:29;;;;;;;12.57;5.40;;;;;;;;;;5051962;28;20254;-67
2023/03/12 00:07:58;;;;;;;13.47;5.70;;;;;;;;;;5053597;28;20189;-67
2023/03/12 00:10:27;;;;;;;10.87;6.37;;;;;;;;;;5055900;28;20302;-67
2023/03/12 00:12:52;;;;;;;14.07;6.50;;;;;;;;;;5067116;28;20270;-67
2023/03/12 00:15:18;;;;;;;13.20;7.67;;;;;;;;;;5057812;28;20224;-67
2023/03/12 00:17:43;;;;;;;18.30;7.43;;;;;;;;;;5057259;28;20246;-67
2023/03/12 00:20:10;;;;;;;13.23;6.63;;;;;;;;;;5052370;28;20298;-67
2023/03/12 00:22:36;;;;;;;15.67;7.93;;;;;;;;;;5056854;28;20540;-68
2023/03/12 00:25:02;;;;;;;13.13;7.67;;;;;;;;;;5055163;28;20204;-67
2023/03/12 00:27:28;;;;;;;12.77;7.53;;;;;;;;;;5048330;28;20189;-67
2023/03/12 00:29:53;;;;;;;13.57;7.03;;;;;;;;;;5047827;28;20189;-67
2023/03/12 00:32:19;;;;;;;15.63;7.93;;;;;;;;;;5051350;28;20193;-67
2023/03/12 00:34:50;;;;;;;17.30;8.57;;;;;;;;;;5053750;28;20229;-67
2023/03/12 00:37:16;;;;;;;13.90;8.53;;;;;;;;;;5057894;28;20184;-67
2023/03/12 00:39:41;;;;;;;18.47;8.83;;;;;;;;;;5054393;28;20219;-67
2023/03/12 00:42:06;;;;;;;16.07;8.53;;;;;;;;;;5049042;28;20208;-67
2023/03/12 00:44:32;;;;;;;15.27;8.67;;;;;;;;;;5057938;28;20335;-67
2023/03/12 00:46:57;;;;;;;16.70;8.80;;;;;;;;;;5053225;28;20535;-67
2023/03/12 00:49:22;;;;;;;16.47;8.77;;;;;;;;;;5057767;28;20209;-67
2023/03/12 00:51:48;;;;;;;17.27;8.70;;;;;;;;;;5053174;28;20209;-67
2023/03/12 00:54:13;;;;;;;18.67;9.73;;;;;;;;;;5055738;28;20185;-67
2023/03/12 00:56:39;;;;;;;20.47;10.03;;;;;;;;;;5048062;28;20181;-67
2023/03/12 00:59:04;;;;;;;18.07;9.23;;;;;;;;;;5060568;28;20197;-67
2023/03/12 01:01:29;;;;;;;17.67;8.60;;;;;;;;;;5043110;28;20204;-67
2023/03/12 01:03:57;;;;;;;18.30;9.27;;;;;;;;;;5059587;28;20750;-67
2023/03/12 01:06:22;;;;;;;18.40;9.07;;;;;;;;;;5060622;28;20276;-67
2023/03/12 01:08:47;;;;;;;15.80;8.93;;;;;;;;;;5056506;28;20276;-67
2023/03/12 01:11:18;;;;;;;18.10;10.77;;;;;;;;;;5059608;28;20537;-67
2023/03/12 01:13:44;;;;;;;17.43;9.27;;;;;;;;;;5063593;28;20222;-67
2023/03/12 01:16:09;;;;;;;19.90;9.53;;;;;;;;;;5060017;28;20239;-67
2023/03/12 01:18:35;;;;;;;20.27;9.53;;;;;;;;;;5048732;28;20300;-67
2023/03/12 01:21:01;;;;;;;17.97;9.20;;;;;;;;;;5061601;28;20213;-67
2023/03/12 01:23:27;;;;;;;23.67;9.20;;;;;;;;;;5056711;28;20219;-67
2023/03/12 01:25:54;;;;;;;17.00;8.63;;;;;;;;;;5061185;28;20232;-67
2023/03/12 01:28:20;;;;;;;15.80;9.10;;;;;;;;;;5062384;28;20188;-67
2023/03/12 01:30:46;;;;;;;18.33;9.63;;;;;;;;;;5049703;28;20225;-67
2023/03/12 01:33:12;;;;;;;16.77;8.90;;;;;;;;;;5057145;28;20612;-67
2023/03/12 01:35:39;;;;;;;20.63;9.13;;;;;;;;;;5048336;28;20545;-67
2023/03/12 01:38:06;;;;;;;14.10;9.23;;;;;;;;;;5058228;28;20212;-67
2023/03/12 01:40:33;;;;;;;17.40;8.90;;;;;;;;;;5048733;28;20288;-67
2023/03/12 01:43:20;;;;;;;20.33;9.63;;;;;;;;;;5061941;28;20240;-67
2023/03/12 01:46:04;;;;;;;16.70;9.33;;;;;;;;;;5056409;28;20200;-67
2023/03/12 01:48:40;;;;;;;20.43;8.80;;;;;;;;;;5061473;28;20674;-67
2023/03/12 01:51:09;;;;;;;18.63;8.67;;;;;;;;;;5051360;28;20527;-67
2023/03/12 01:53:35;;;;;;;15.97;8.30;;;;;;;;;;5049083;28;20192;-67
2023/03/12 01:56:01;;;;;;;13.47;8.00;;;;;;;;;;5047810;28;20662;-67
2023/03/12 01:58:29;;;;;;;19.30;8.70;;;;;;;;;;5055686;28;20188;-68
2023/03/12 02:00:55;;;;;;;15.27;7.33;;;;;;;;;;5049053;28;20857;-67
2023/03/12 02:03:21;;;;;;;16.57;8.33;;;;;;;;;;5049823;28;20196;-67
2023/03/12 02:06:06;;;;;;;15.27;7.43;;;;;;;;;;5049749;28;20196;-67
2023/03/12 02:08:37;;;;;;;12.43;7.07;;;;;;;;;;5034738;28;20638;-67
2023/03/12 02:11:03;;;;;;;17.83;7.50;;;;;;;;;;5060461;28;20185;-67
2023/03/12 02:13:28;;;;;;;14.80;7.53;;;;;;;;;;5059191;28;20189;-67
2023/03/12 02:15:54;;;;;;;10.83;7.60;;;;;;;;;;5053234;28;20269;-67
2023/03/12 02:18:20;;;;;;;13.53;7.80;;;;;;;;;;5053932;28;20189;-67
2023/03/12 02:21:00;;;;;;;16.40;7.73;;;;;;;;;;5057160;28;20204;-67
2023/03/12 02:23:41;;;;;;;17.50;9.03;;;;;;;;;;5066276;28;20346;-67
2023/03/12 02:26:08;;;;;;;11.90;7.23;;;;;;;;;;5064278;28;20189;-67
2023/03/12 02:28:41;;;;;;;18.53;8.17;;;;;;;;;;5063116;28;20253;-67
2023/03/12 02:31:07;;;;;;;12.23;7.43;;;;;;;;;;5059070;28;20182;-68
2023/03/12 02:33:33;;;;;;;11.70;7.43;;;;;;;;;;5050679;28;20739;-68
2023/03/12 02:35:58;;;;;;;15.90;6.60;;;;;;;;;;5055452;28;20194;-67
2023/03/12 02:38:35;;;;;;;13.60;6.93;;;;;;;;;;5063743;28;20189;-68
2023/03/12 02:41:09;;;;;;;13.93;6.60;;;;;;;;;;5052628;28;20258;-67
2023/03/12 02:43:35;;;;;;;10.30;6.20;;;;;;;;;;5058233;28;20189;-68
2023/03/12 02:46:00;;;;;;;9.33;5.67;;;;;;;;;;5053763;28;20197;-68
2023/03/12 02:48:25;;;;;;;11.80;5.97;;;;;;;;;;5057131;28;20189;-67
2023/03/12 02:50:51;;;;;;;15.07;6.73;;;;;;;;;;5066582;28;20518;-68
2023/03/12 02:53:16;;;;;;;12.03;6.00;;;;;;;;;;5065159;28;20251;-68
2023/03/12 02:55:42;;;;;;;12.87;6.00;;;;;;;;;;5053888;28;20562;-67
2023/03/12 02:58:07;;;;;;;14.07;6.53;;;;;;;;;;5069364;28;20193;-67
2023/03/12 03:00:32;;;;;;;13.50;5.43;;;;;;;;;;5060229;28;20221;-68
2023/03/12 03:02:59;;;;;;;15.83;6.17;;;;;;;;;;5054680;28;20610;-67
2023/03/12 03:05:24;;;;;;;13.30;5.10;;;;;;;;;;5064403;28;20594;-67
2023/03/12 03:07:50;;;;;;;9.33;5.07;;;;;;;;;;5058035;28;20195;-67
2023/03/12 03:10:16;;;;;;;11.30;5.20;;;;;;;;;;5062257;28;20193;-67
2023/03/12 03:12:42;;;;;;;11.53;4.93;;;;;;;;;;5050835;28;20280;-68
2023/03/12 03:15:08;;;;;;;12.80;5.03;;;;;;;;;;5062598;28;20190;-67
2023/03/12 03:17:33;;;;;;;9.97;4.50;;;;;;;;;;5058276;28;20196;-68
2023/03/12 03:19:59;;;;;;;11.67;4.87;;;;;;;;;;5056200;28;20268;-67
2023/03/12 03:22:24;;;;;;;11.63;5.27;;;;;;;;;;5052428;28;20735;-67
2023/03/12 03:24:52;;;;;;;11.27;5.03;;;;;;;;;;5049499;28;20197;-67
2023/03/12 03:27:17;;;;;;;9.30;5.47;;;;;;;;;;5058528;28;20276;-68
2023/03/12 03:29:45;;;;;;;10.00;5.50;;;;;;;;;;5057807;28;20284;-67
2023/03/12 03:32:10;;;;;;;14.07;5.10;;;;;;;;;;5055662;28;20543;-67
2023/03/12 03:34:35;;;;;;;12.37;4.87;;;;;;;;;;5055892;28;20233;-67
2023/03/12 03:37:01;;;;;;;10.30;4.60;;;;;;;;;;5049894;28;20185;-67
2023/03/12 03:39:28;;;;;;;14.03;4.70;;;;;;;;;;5050164;28;20265;-67
2023/03/12 03:41:53;;;;;;;12.47;5.03;;;;;;;;;;5067676;28;20406;-68
2023/03/12 03:44:21;;;;;;;11.30;5.03;;;;;;;;;;5065156;28;20674;-67
2023/03/12 03:46:46;;;;;;;8.60;4.83;;;;;;;;;;5053774;28;20224;-67
2023/03/12 03:49:12;;;;;;;10.57;5.23;;;;;;;;;;5061756;28;20220;-67
2023/03/12 03:51:37;;;;;;;9.80;4.70;;;;;;;;;;5052115;28;20192;-68
2023/03/12 03:54:03;;;;;;;10.80;5.37;;;;;;;;;;5053378;28;20199;-68
2023/03/12 03:56:28;;;;;;;10.07;4.70;;;;;;;;;;5065635;28;20193;-67
2023/03/12 03:58:53;;;;;;;11.57;5.10;;;;;;;;;;5054466;28;20197;-67
2023/03/12 04:01:19;;;;;;;16.60;5.47;;;;;;;;;;5055981;28;20221;-67
2023/03/12 04:03:45;;;;;;;9.47;5.40;;;;;;;;;;5050374;28;20189;-67
2023/03/12 04:06:11;;;;;;;12.80;5.80;;;;;;;;;;5061975;28;20666;-67
2023/03/12 04:08:37;;;;;;;11.40;5.07;;;;;;;;;;5051386;28;20558;-67
2023/03/12 04:11:10;;;;;;;10.77;5.47;;;;;;;;;;5048637;28;20281;-67
2023/03/12 04:13:37;;;;;;;12.17;4.90;;;;;;;;;;5053686;28;20628;-67
2023/03/12 04:16:03;;;;;;;15.93;5.43;;;;;;;;;;5056663;28;20623;-67
2023/03/12 04:18:28;;;;;;;11.73;5.40;;;;;;;;;;5049142;28;20193;-67
2023/03/12 04:20:54;;;;;;;16.00;5.50;;;;;;;;;;5060440;28;20703;-67
2023/03/12 04:23:19;;;;;;;10.67;5.30;;;;;;;;;;5051409;28;20247;-67
2023/03/12 04:25:44;;;;;;;11.50;5.37;;;;;;;;;;5058377;28;20212;-67
2023/03/12 04:28:10;;;;;;;10.53;4.90;;;;;;;;;;5051125;28;20220;-67
2023/03/12 04:30:37;;;;;;;8.87;4.97;;;;;;;;;;5068645;28;20268;-67
2023/03/12 04:33:06;;;;;;;15.37;5.90;;;;;;;;;;5059618;28;20277;-67
2023/03/12 04:35:31;;;;;;;10.30;4.80;;;;;;;;;;5059515;28;20478;-67
2023/03/12 04:37:57;;;;;;;9.47;4.67;;;;;;;;;;5063044;28;20243;-67
2023/03/12 04:40:22;;;;;;;10.67;4.60;;;;;;;;;;5051011;28;20642;-67
2023/03/12 04:42:48;;;;;;;9.67;4.43;;;;;;;;;;5063204;28;20279;-67
2023/03/12 04:45:13;;;;;;;10.30;4.50;;;;;;;;;;5050797;28;20205;-67
2023/03/12 04:47:39;;;;;;;12.60;4.83;;;;;;;;;;5062953;28;20286;-67
2023/03/12 04:50:04;;;;;;;7.10;4.27;;;;;;;;;;5048705;28;20193;-67
2023/03/12 04:52:30;;;;;;;8.97;4.77;;;;;;;;;;5057275;28;20193;-67
2023/03/12 04:54:55;;;;;;;16.03;4.90;;;;;;;;;;5052913;28;20288;-67
2023/03/12 04:57:21;;;;;;;7.23;4.23;;;;;;;;;;5052502;28;20633;-67
2023/03/12 04:59:46;;;;;;;9.43;3.73;;;;;;;;;;5051860;28;20704;-67
2023/03/12 05:02:12;;;;;;;12.27;4.37;;;;;;;;;;5059563;28;20189;-67
2023/03/12 05:04:37;;;;;;;13.27;4.40;;;;;;;;;;5058829;28;20212;-67
2023/03/12 05:07:03;;;;;;;8.80;4.23;;;;;;;;;;5057482;28;20204;-67
2023/03/12 05:09:28;;;;;;;10.57;3.87;;;;;;;;;;5051655;28;20189;-67
2023/03/12 05:11:54;;;;;;;13.80;3.93;;;;;;;;;;5057345;28;20228;-67
2023/03/12 05:14:19;;;;;;;8.73;3.93;;;;;;;;;;5061587;28;20196;-67
2023/03/12 05:16:45;;;;;;;10.37;3.80;;;;;;;;;;5051922;28;20327;-67
2023/03/12 05:19:10;;;;;;;7.47;4.20;;;;;;;;;;5057635;28;20608;-67
2023/03/12 05:21:36;;;;;;;6.53;3.70;;;;;;;;;;5057311;28;20214;-67
2023/03/12 05:24:01;;;;;;;6.63;4.20;;;;;;;;;;5062873;28;20665;-66
2023/03/12 05:26:30;;;;;;;10.30;4.07;;;;;;;;;;5059887;28;20219;-67
2023/03/12 05:28:56;;;;;;;8.17;3.97;;;;;;;;;;5050642;28;20272;-67
2023/03/12 05:31:22;;;;;;;8.87;4.37;;;;;;;;;;5055949;28;20178;-67
2023/03/12 05:33:47;;;;;;;7.73;3.80;;;;;;;;;;5057932;28;20228;-66
2023/03/12 05:36:13;;;;;;;11.73;4.70;;;;;;;;;;5065824;28;20257;-67
2023/03/12 05:38:39;;;;;;;10.77;3.60;;;;;;;;;;5050869;28;20247;-66
2023/03/12 05:41:05;;;;;;;8.93;4.00;;;;;;;;;;5048374;28;20684;-67
2023/03/12 05:43:31;;;;;;;8.53;3.57;;;;;;;;;;5061331;28;20683;-66
2023/03/12 05:46:02;;;;;;;10.37;3.87;;;;;;;;;;5060723;28;20263;-66
2023/03/12 05:48:28;;;;;;;8.00;4.27;;;;;;;;;;5053861;28;20188;-66
2023/03/12 05:50:53;;;;;;;8.83;4.10;;;;;;;;;;5061374;28;20618;-66
2023/03/12 05:53:19;;;;;;;7.23;3.60;;;;;;;;;;5056308;28;20692;-66
2023/03/12 05:55:44;;;;;;;9.87;4.63;;;;;;;;;;5053258;28;20718;-66
2023/03/12 05:58:09;;;;;;;9.40;3.93;;;;;;;;;;5061065;28;21116;-66
2023/03/12 06:00:36;;;;;;;12.93;4.07;;;;;;;;;;5064181;28;20217;-66
2023/03/12 06:03:04;;;;;;;10.87;3.60;;;;;;;;;;5068843;28;20231;-66
2023/03/12 06:05:31;;;;;;;8.60;4.03;;;;;;;;;;5060129;28;20216;-66
2023/03/12 06:07:56;;;;;;;9.27;3.70;;;;;;;;;;5053915;28;20492;-66
2023/03/12 06:10:22;;;;;;;11.37;4.07;;;;;;;;;;5060910;28;20264;-66
2023/03/12 06:12:47;;;;;;;11.23;3.93;;;;;;;;;;5056894;28;20228;-66
2023/03/12 06:15:13;;;;;;;7.10;3.90;;;;;;;;;;5054236;28;20196;-66
2023/03/12 06:17:39;;;;;;;9.63;3.80;;;;;;;;;;5064606;28;20189;-66
2023/03/12 06:20:05;;;;;;;7.50;3.90;;;;;;;;;;5058375;28;20490;-66
2023/03/12 06:22:31;;;;;;;8.43;3.37;;;;;;;;;;5060666;28;20196;-66
2023/03/12 06:24:56;;;;;;;7.97;3.30;;;;;;;;;;5052482;28;20197;-66
2023/03/12 06:27:21;;;;;;;5.60;3.43;;;;;;;;;;5068005;28;20812;-66
2023/03/12 06:29:47;;;;;;;10.03;3.87;;;;;;;;;;5059025;28;20184;-66
2023/03/12 06:32:13;;;;;;;13.17;4.07;;;;;;;;;;5056515;28;20275;-66
2023/03/12 06:34:38;;;;;;;9.70;3.93;;;;;;;;;;5055692;28;20572;-66
2023/03/12 06:37:04;;;;;;;8.23;3.43;;;;;;;;;;5059975;28;20215;-66
2023/03/12 06:39:29;;;;;;;5.17;3.37;;;;;;;;;;5055543;28;20200;-66
2023/03/12 06:41:55;;;;;;;10.60;3.50;;;;;;;;;;5056299;28;20209;-66
2023/03/12 06:44:20;;;;;;;10.33;4.17;;;;;;;;;;5069332;28;20192;-67
2023/03/12 06:46:46;;;;;;;8.67;3.53;;;;;;;;;;5060227;28;20193;-66
2023/03/12 06:49:11;;;;;;;7.07;4.00;;;;;;;;;;5053457;28;20327;-67
2023/03/12 06:51:36;;;;;;;8.43;3.63;;;;;;;;;;5050826;28;20185;-66
2023/03/12 06:54:02;;;;;;;7.83;4.00;;;;;;;;;;5054930;28;20189;-66
2023/03/12 06:56:29;;;;;;;9.80;3.50;;;;;;;;;;5064352;28;20651;-66
2023/03/12 06:58:55;;;;;;;8.90;3.70;;;;;;;;;;5057854;28;20181;-66
2023/03/12 07:01:21;;;;;;;9.70;3.90;;;;;;;;;;5055375;28;20578;-66
2023/03/12 07:03:47;;;;;;;8.97;3.60;;;;;;;;;;5053225;28;20181;-66
2023/03/12 07:06:20;;;;;;;6.47;3.37;;;;;;;;;;5053129;28;20208;-67
2023/03/12 07:08:46;;;;;;;7.10;3.70;;;;;;;;;;5051857;28;20185;-67
2023/03/12 07:11:12;;;;;;;7.80;3.50;;;;;;;;;;5058000;28;20204;-67
2023/03/12 07:13:38;;;;;;;10.60;3.70;;;;;;;;;;5051766;28;20232;-66
2023/03/12 07:16:04;;;;;;;9.47;3.53;;;;;;;;;;5055297;28;20836;-67
2023/03/12 07:18:29;;;;;;;5.90;3.30;;;;;;;;;;5050440;28;20284;-66
2023/03/12 07:20:54;;;;;;;6.50;3.20;;;;;;;;;;5053635;28;20691;-66
2023/03/12 07:23:21;;;;;;;10.33;3.33;;;;;;;;;;5060827;28;20184;-67
2023/03/12 07:25:47;;;;;;;7.63;3.37;;;;;;;;;;5059113;28;20185;-67
2023/03/12 07:28:13;;;;;;;7.40;3.33;;;;;;;;;;5053137;28;20193;-67
2023/03/12 07:30:39;;;;;;;4.43;2.80;;;;;;;;;;5057697;28;20246;-67
2023/03/12 07:33:07;;;;;;;8.83;3.27;;;;;;;;;;5054995;28;20184;-67
2023/03/12 07:35:33;;;;;;;10.20;3.70;;;;;;;;;;5053779;28;20229;-66
2023/03/12 07:38:00;;;;;;;5.90;3.10;;;;;;;;;;5036789;28;20197;-67
2023/03/12 07:40:25;;;;;;;8.27;3.10;;;;;;;;;;5056139;28;20212;-67
2023/03/12 07:42:51;;;;;;;6.07;3.40;;;;;;;;;;5058642;28;20184;-68
2023/03/12 07:45:18;;;;;;;7.17;3.43;;;;;;;;;;5057351;28;20202;-66
2023/03/12 07:47:44;;;;;;;9.30;3.37;;;;;;;;;;5051579;28;20649;-67
2023/03/12 07:50:10;;;;;;;8.60;3.50;;;;;;;;;;5056063;28;20197;-67
2023/03/12 07:52:35;;;;;;;8.63;3.37;;;;;;;;;;5051496;28;20212;-67
2023/03/12 07:55:01;;;;;;;7.13;3.33;;;;;;;;;;5056701;28;20189;-67
2023/03/12 07:57:26;;;;;;;8.03;2.90;;;;;;;;;;5051298;28;20201;-67
2023/03/12 07:59:51;;;;;;;8.67;3.43;;;;;;;;;;5055528;28;20225;-67
2023/03/12 08:02:17;;;;;;;10.63;4.10;;;;;;;;;;5052404;28;20268;-68
2023/03/12 08:04:42;;;;;;;7.43;3.23;;;;;;;;;;5062494;28;20656;-69
2023/03/12 08:07:08;;;;;;;8.20;3.43;;;;;;;;;;5041263;28;20358;-68
2023/03/12 08:09:33;;;;;;;13.63;3.67;;;;;;;;;;5053436;28;20659;-69
2023/03/12 08:11:59;;;;;;;7.43;3.07;;;;;;;;;;5063235;28;20201;-69
2023/03/12 08:14:25;;;;;;;6.10;3.00;;;;;;;;;;5050836;28;20292;-69
2023/03/12 08:16:50;;;;;;;8.23;3.60;;;;;;;;;;5049962;28;20510;-68
2023/03/12 08:19:16;;;;;;;11.37;3.60;;;;;;;;;;5059551;28;20197;-68
2023/03/12 08:21:41;;;;;;;10.30;3.80;;;;;;;;;;5049089;28;20735;-69
2023/03/12 08:24:07;;;;;;;12.67;3.60;;;;;;;;;;5064528;28;20215;-68
2023/03/12 08:26:32;;;;;;;10.20;4.00;;;;;;;;;;5048842;28;20197;-69
2023/03/12 08:28:59;;;;;;;8.07;4.57;;;;;;;;;;5055259;28;20613;-69
2023/03/12 08:31:26;;;;;;;13.43;4.20;;;;;;;;;;5060671;28;20293;-68
2023/03/12 08:33:51;;;;;;;11.33;4.40;;;;;;;;;;5055625;28;20718;-68
2023/03/12 08:36:16;;;;;;;12.70;4.23;;;;;;;;;;5048436;28;20272;-68
2023/03/12 08:38:42;;;;;;;9.53;4.17;;;;;;;;;;5055661;28;20544;-68
2023/03/12 08:41:07;;;;;;;10.17;3.93;;;;;;;;;;5055385;28;20300;-67
2023/03/12 08:43:32;;;;;;;16.17;4.20;;;;;;;;;;4355251;28;10000839;-69
2023/03/12 08:46:00;;;;;;;8.97;4.30;;;;;;;;;;5050736;28;20206;-68
2023/03/12 08:48:27;;;;;;;9.40;3.70;;;;;;;;;;5059837;28;20188;-68
2023/03/12 08:50:57;;;;;;;8.60;3.77;;;;;;;;;;5058582;28;20247;-69
2023/03/12 08:53:23;;;;;;;12.43;4.10;;;;;;;;;;5056642;28;20232;-68
2023/03/12 08:55:51;;;;;;;10.07;4.40;;;;;;;;;;5047823;28;20201;-67
2023/03/12 08:58:17;;;;;;;9.40;3.87;;;;;;;;;;5053013;28;20705;-68
2023/03/12 09:00:42;;;;;;;10.63;4.20;;;;;;;;;;5052872;28;20234;-70
2023/03/12 09:03:11;;;;;;;9.20;4.57;;;;;;;;;;5054386;28;20200;-71
2023/03/12 09:05:36;;;;;;;7.80;4.20;;;;;;;;;;5060670;28;20192;-70
2023/03/12 09:08:01;;;;;;;11.67;4.50;;;;;;;;;;5049655;28;20200;-70
2023/03/12 09:10:27;;;;;;;9.80;4.67;;;;;;;;;;5052217;28;20269;-71
2023/03/12 09:12:52;;;;;;;10.57;4.50;;;;;;;;;;5056983;28;20277;-71
2023/03/12 09:15:18;;;;;;;8.67;4.67;;;;;;;;;;5055180;28;20204;-71
2023/03/12 09:17:43;;;;;;;8.53;4.93;;;;;;;;;;5055445;28;20735;-71
2023/03/12 09:20:15;;;;;;;11.00;5.10;;;;;;;;;;5055566;28;20217;-70
2023/03/12 09:22:41;;;;;;;9.30;4.73;;;;;;;;;;5052185;28;20274;-74
2023/03/12 09:25:09;;;;;;;8.90;5.50;;;;;;;;;;5053199;28;20189;-74
2023/03/12 09:27:39;;;;;;;8.60;4.87;;;;;;;;;;5053542;28;20193;-73
2023/03/12 09:30:07;;;;;;;9.33;5.30;;;;;;;;;;5049627;28;20189;-72
2023/03/12 09:32:32;;;;;;;12.87;5.70;;;;;;;;;;5057737;28;20303;-72
2023/03/12 09:34:58;;;;;;;14.40;6.63;;;;;;;;;;5055278;28;20224;-73
2023/03/12 09:37:23;;;;;;;10.13;5.77;;;;;;;;;;5055076;28;20240;-74
2023/03/12 09:39:49;;;;;;;14.00;7.50;;;;;;;;;;5050689;28;20668;-74
2023/03/12 09:42:32;;;;;;;12.90;7.70;;;;;;;;;;5058044;28;20193;-75
2023/03/12 09:45:00;;;;;;;13.93;8.73;;;;;;;;;;5058921;28;20189;-75
2023/03/12 09:47:29;;;;;;;15.60;9.17;;;;;;;;;;5048807;28;20197;-72
2023/03/12 09:50:25;;;;;;;16.50;9.80;;;;;;;;;;5062321;28;20181;-72
2023/03/12 09:52:57;;;;;;;17.43;9.80;;;;;;;;;;5065166;28;20192;-73
2023/03/12 09:55:24;;;;;;;19.47;9.97;;;;;;;;;;5054655;28;20192;-72
2023/03/12 09:57:51;;;;;;;17.77;12.03;;;;;;;;;;5064794;28;20196;-71
2023/03/12 10:00:21;;;;;;;15.97;11.13;;;;;;;;;;5062503;28;20554;-71
2023/03/12 10:03:09;;;;;;;18.80;11.33;;;;;;;;;;5051300;28;20825;-71
2023/03/12 10:05:53;;;;;;;15.23;10.27;;;;;;;;;;5061219;28;20193;-71
2023/03/12 10:08:35;;;;;;;17.27;11.60;;;;;;;;;;5058800;28;20458;-71
2023/03/12 10:11:35;;;;;;;16.57;11.60;;;;;;;;;;5052246;28;20181;-71
2023/03/12 10:14:07;;;;;;;18.87;10.13;;;;;;;;;;5060894;28;20303;-71
2023/03/12 10:16:48;;;;;;;15.70;10.33;;;;;;;;;;5049871;28;20188;-71
2023/03/12 10:19:25;;;;;;;15.30;9.50;;;;;;;;;;5061346;28;20205;-70
2023/03/12 10:22:02;;;;;;;12.83;9.53;;;;;;;;;;5063507;28;20233;-72
2023/03/12 10:24:38;;;;;;;13.37;8.73;;;;;;;;;;5062444;28;20268;-71
2023/03/12 10:27:11;;;;;;;10.27;8.63;;;;;;;;;;5058706;28;20192;-71
2023/03/12 10:29:40;;;;;;;13.80;8.97;;;;;;;;;;5053781;28;20185;-71
2023/03/12 10:32:10;;;;;;;11.87;8.00;;;;;;;;;;5059797;28;20655;-71
2023/03/12 10:34:41;;;;;;;11.80;7.37;;;;;;;;;;5047173;28;20260;-71
2023/03/12 10:37:21;;;;;;;9.87;7.47;;;;;;;;;;5060531;28;20246;-71
2023/03/12 10:39:47;;;;;;;11.83;7.53;;;;;;;;;;5062807;28;20304;-71
2023/03/12 10:42:27;;;;;;;12.97;8.00;;;;;;;;;;5054188;28;20298;-72
2023/03/12 10:45:24;;;;;;;11.47;7.40;;;;;;;;;;5058899;28;20185;-72
2023/03/12 10:47:59;;;;;;;12.63;7.33;;;;;;;;;;5042569;28;20324;-69
2023/03/12 10:50:30;;;;;;;12.30;7.60;;;;;;;;;;5056828;28;20196;-71
2023/03/12 10:53:20;;;;;;;11.10;7.30;;;;;;;;;;5052031;28;20242;-70
2023/03/12 10:56:10;;;;;;;12.67;7.07;;;;;;;;;;5062721;28;20396;-72
2023/03/12 10:58:50;;;;;;;12.57;7.03;;;;;;;;;;5053145;28;20180;-71
2023/03/12 11:01:19;;;;;;;10.57;7.40;;;;;;;;;;5056487;28;21229;-71
2023/03/12 11:03:45;;;;;;;10.03;7.23;;;;;;;;;;5052567;28;20311;-71
2023/03/12 11:06:22;;;;;;;8.17;6.77;;;;;;;;;;5051878;28;20200;-72
2023/03/12 11:09:10;;;;;;;10.97;7.10;;;;;;;;;;5061746;28;20185;-71
2023/03/12 11:11:36;;;;;;;10.53;7.63;;;;;;;;;;5061478;28;20213;-71
2023/03/12 11:14:16;;;;;;;11.83;7.63;;;;;;;;;;5059559;28;20592;-72
2023/03/12 11:16:42;;;;;;;12.27;8.10;;;;;;;;;;5058346;28;20268;-72
2023/03/12 11:19:12;;;;;;;10.43;8.20;;;;;;;;;;5054210;28;20620;-72
2023/03/12 11:21:39;;;;;;;14.33;8.10;;;;;;;;;;5053763;28;20204;-72
2023/03/12 11:24:14;;;;;;;14.50;8.67;;;;;;;;;;5058145;28;20192;-72
2023/03/12 11:26:47;;;;;;;11.53;8.23;;;;;;;;;;5059026;28;20196;-71
2023/03/12 11:29:28;;;;;;;15.10;8.80;;;;;;;;;;5058609;28;20192;-70
2023/03/12 11:32:02;;;;;;;14.37;9.03;;;;;;;;;;5074960;28;20610;-71
2023/03/12 11:34:31;;;;;;;14.47;9.80;;;;;;;;;;5057320;28;20227;-71
2023/03/12 11:37:34;;;;;;;16.63;10.00;;;;;;;;;;5064399;28;20220;-71
2023/03/12 11:40:11;;;;;;;14.70;9.63;;;;;;;;;;5053181;28;20216;-70
2023/03/12 11:42:55;;;;;;;15.03;10.87;;;;;;;;;;5054841;28;20284;-72
2023/03/12 11:45:47;;;;;;;13.00;9.57;;;;;;;;;;5055804;28;20260;-71
2023/03/12 11:48:31;;;;;;;13.23;9.63;;;;;;;;;;5048921;28;20436;-72
2023/03/12 11:51:15;;;;;;;14.50;9.83;;;;;;;;;;5055809;28;20603;-72
2023/03/12 11:54:19;;;;;;;17.80;10.70;;;;;;;;;;5048303;28;20838;-71
2023/03/12 11:56:54;;;;;;;15.60;9.83;;;;;;;;;;5050516;28;20209;-71
2023/03/12 11:59:48;;;;;;;22.07;11.83;;;;;;;;;;5054353;28;20249;-71
2023/03/12 12:02:36;;;;;;;16.93;10.80;;;;;;;;;;5057886;28;20271;-71
2023/03/12 12:05:21;;;;;;;21.50;11.37;;;;;;;;;;5063094;28;20189;-69
2023/03/12 12:08:28;;;;;;;17.93;12.23;;;;;;;;;;5046924;28;20236;-71
2023/03/12 12:11:06;;;;;;;19.33;12.13;;;;;;;;;;5049213;28;20223;-71
2023/03/12 12:13:47;;;;;;;21.27;12.57;;;;;;;;;;5049552;28;20193;-71
2023/03/12 12:16:44;;;;;;;21.27;13.20;;;;;;;;;;5053622;28;20239;-71
2023/03/12 12:19:19;;;;;;;23.47;13.73;;;;;;;;;;5058330;28;20227;-69
2023/03/12 12:21:53;;;;;;;24.73;13.27;;;;;;;;;;5050073;28;20240;-71
2023/03/12 12:24:32;;;;;;;24.73;14.07;;;;;;;;;;5053858;28;20260;-70
2023/03/12 12:27:21;;;;;;;22.77;14.90;;;;;;;;;;5054079;28;20223;-69
2023/03/12 12:30:20;;;;;;;25.05;14.80;;;;;;;;;;5054216;28;20189;-70
2023/03/12 12:33:11;;;;;;;26.90;15.80;;;;;;;;;;5055122;28;20667;-71
2023/03/12 12:35:41;;;;;;;26.90;16.48;;;;;;;;;;5054972;28;20251;-70
2023/03/12 12:38:19;;;;;;;27.83;16.52;;;;;;;;;;5060692;28;20235;-70
2023/03/12 12:40:50;;;;;;;33.20;16.75;;;;;;;;;;5048343;28;20723;-70
2023/03/12 12:43:31;;;;;;;26.50;15.57;;;;;;;;;;5065586;28;20181;-70
2023/03/12 12:46:03;;;;;;;28.30;16.00;;;;;;;;;;5061753;28;20233;-70
2023/03/12 12:48:34;;;;;;;26.38;15.68;;;;;;;;;;5059678;28;20191;-69
2023/03/12 12:51:00;;;;;;;28.90;16.65;;;;;;;;;;5060938;28;20200;-69
2023/03/12 12:53:54;;;;;;;25.98;16.10;;;;;;;;;;5051872;28;20268;-69
2023/03/12 12:56:47;;;;;;;27.58;15.40;;;;;;;;;;5060250;28;20219;-70
2023/03/12 12:59:15;;;;;;;26.88;15.35;;;;;;;;;;5055811;28;20181;-70
2023/03/12 13:01:42;;;;;;;31.10;17.27;;;;;;;;;;5050141;28;20209;-71
2023/03/12 13:04:34;;;;;;;33.33;16.73;;;;;;;;;;5054823;28;20193;-71
2023/03/12 13:07:23;;;;;;;29.90;15.90;;;;;;;;;;5056666;28;20381;-72
2023/03/12 13:09:55;;;;;;;32.13;17.33;;;;;;;;;;5047632;28;20190;-70
2023/03/12 13:12:56;;;;;;;34.03;17.40;;;;;;;;;;5052659;28;20276;-72
2023/03/12 13:15:26;;;;;;;36.60;17.83;;;;;;;;;;5063261;28;20204;-72
2023/03/12 13:17:55;;;;;;;35.35;17.60;;;;;;;;;;5057806;28;20200;-72
2023/03/12 13:20:26;;;;;;;30.40;17.15;;;;;;;;;;5048229;28;20596;-72
2023/03/12 13:23:33;;;;;;;36.08;17.45;;;;;;;;;;5048118;28;20216;-72
2023/03/12 13:26:21;;;;;;;26.98;16.08;;;;;;;;;;5049796;28;20192;-71
2023/03/12 13:28:53;;;;;;;30.75;16.13;;;;;;;;;;5035546;28;20217;-72
2023/03/12 13:31:27;;;;;;;32.55;16.88;;;;;;;;;;5048978;28;20180;-72
2023/03/12 13:33:58;;;;;;;28.85;15.88;;;;;;;;;;5056610;28;20232;-72
2023/03/12 13:36:27;;;;;;;28.23;14.93;;;;;;;;;;5051615;28;20195;-73
2023/03/12 13:38:57;;;;;;;27.52;15.07;;;;;;;;;;5053272;28;20204;-70
2023/03/12 13:41:34;;;;;;;27.92;14.85;;;;;;;;;;5057755;28;20561;-71
2023/03/12 13:44:20;;;;;;;29.92;14.90;;;;;;;;;;5046608;28;20202;-69
2023/03/12 13:46:45;;;;;;;24.50;13.43;;;;;;;;;;5053920;28;20257;-70
2023/03/12 13:49:14;;;;;;;21.48;12.93;;;;;;;;;;5043590;28;20629;-71
2023/03/12 13:51:57;;;;;;;25.98;13.95;;;;;;;;;;5051953;28;20193;-71
2023/03/12 13:54:27;;;;;;;21.25;12.15;;;;;;;;;;5055991;28;20692;-70
2023/03/12 13:57:23;;;;;;;23.73;14.18;;;;;;;;;;5053079;28;20189;-71
2023/03/12 13:59:50;;;;;;;28.88;12.80;;;;;;;;;;5057729;28;20468;-70
2023/03/12 14:02:28;;;;;;;25.80;13.50;;;;;;;;;;5060194;28;20189;-70
2023/03/12 14:05:01;;;;;;;24.77;13.18;;;;;;;;;;5044805;28;21755;-69
2023/03/12 14:07:43;;;;;;;19.65;12.90;;;;;;;;;;5045312;28;20193;-69
2023/03/12 14:10:27;;;;;;;24.20;12.95;;;;;;;;;;5047225;28;20216;-70
2023/03/12 14:13:08;;;;;;;20.75;12.55;;;;;;;;;;5055534;28;20182;-69
2023/03/12 14:15:49;;;;;;;19.52;12.25;;;;;;;;;;5050985;28;20272;-69
2023/03/12 14:18:22;;;;;;;23.33;11.50;;;;;;;;;;5059307;28;20685;-70
2023/03/12 14:21:00;;;;;;;20.30;11.23;;;;;;;;;;5055816;28;20217;-69
2023/03/12 14:23:31;;;;;;;22.55;12.05;;;;;;;;;;5055756;28;20211;-70
2023/03/12 14:26:00;;;;;;;19.35;11.70;;;;;;;;;;5056315;28;20182;-70
2023/03/12 14:28:26;;;;;;;26.85;13.00;;;;;;;;;;5054850;28;20182;-72
2023/03/12 14:31:05;;;;;;;21.50;11.63;;;;;;;;;;5052486;28;20189;-72
2023/03/12 14:34:09;;;;;;;25.60;12.07;;;;;;;;;;5056230;28;20225;-74
2023/03/12 14:36:41;;;;;;;24.63;12.02;;;;;;;;;;5055892;28;20190;-72
2023/03/12 14:39:22;;;;;;;24.13;11.13;;;;;;;;;;5055859;28;20193;-71
2023/03/12 14:41:54;;;;;;;28.58;12.00;;;;;;;;;;5061426;28;20247;-72
2023/03/12 14:44:23;;;;;;;28.88;12.73;;;;;;;;;;5055566;28;20263;-71
2023/03/12 14:47:00;;;;;;;28.23;12.52;;;;;;;;;;5062197;28;20693;-71
2023/03/12 14:49:27;;;;;;;21.98;10.88;;;;;;;;;;5055260;28;20193;-71